Time;durP1;ratioP1;P1;durP2;ratioP2;P2;SDS_P1;SDS_P2;PMS_P1;PMS_P2;Temp;Humidity;BMP_temperature;BMP_pressure;BME280_temperature;BME280_humidity;BME280_pressure;Samples;Min_cycle;Max_cycle;Signal;HPM_P1;HPM_P2
2023/03/04 00:01:21;;;;;;;42.63;25.60;;;2.20;99.90;;;;;;5101632;28;20615;-62
2023/03/04 00:03:47;;;;;;;42.87;26.03;;;2.20;99.90;;;;;;5105385;28;20224;-62
2023/03/04 00:06:14;;;;;;;37.80;23.50;;;2.20;99.90;;;;;;5107986;28;20312;-63
2023/03/04 00:08:41;;;;;;;37.47;22.77;;;2.10;99.90;;;;;;5107161;28;20663;-62
2023/03/04 00:11:08;;;;;;;40.23;24.57;;;2.10;99.90;;;;;;5107113;28;20205;-63
2023/03/04 00:13:36;;;;;;;40.43;24.83;;;2.00;99.90;;;;;;5100774;28;20231;-63
2023/03/04 00:16:02;;;;;;;41.73;24.37;;;2.00;99.90;;;;;;5097758;28;20218;-63
2023/03/04 00:18:29;;;;;;;40.30;24.53;;;1.90;99.90;;;;;;5101584;28;20698;-63
2023/03/04 00:20:56;;;;;;;34.77;23.70;;;1.80;99.90;;;;;;5103032;28;20219;-63
2023/03/04 00:23:22;;;;;;;41.23;25.53;;;1.80;99.90;;;;;;5103356;28;20259;-63
2023/03/04 00:25:49;;;;;;;39.13;24.10;;;1.70;99.90;;;;;;5102820;28;20208;-63
2023/03/04 00:28:16;;;;;;;41.70;24.57;;;1.70;99.90;;;;;;5101100;28;20647;-64
2023/03/04 00:30:44;;;;;;;44.33;26.07;;;1.70;99.90;;;;;;5102987;28;20212;-64
2023/03/04 00:33:11;;;;;;;40.73;25.10;;;1.70;99.90;;;;;;5104176;28;20220;-62
2023/03/04 00:35:37;;;;;;;39.27;24.47;;;1.70;99.90;;;;;;5107944;28;20204;-64
2023/03/04 00:38:04;;;;;;;41.27;25.00;;;1.70;99.90;;;;;;5107361;28;20208;-62
2023/03/04 00:40:31;;;;;;;37.90;25.00;;;1.70;99.90;;;;;;5104388;28;20298;-65
2023/03/04 00:42:58;;;;;;;40.30;25.43;;;1.70;99.90;;;;;;5099927;28;20364;-62
2023/03/04 00:45:24;;;;;;;41.43;25.60;;;1.80;99.90;;;;;;5099158;28;20208;-63
2023/03/04 00:47:52;;;;;;;41.60;25.53;;;1.80;99.90;;;;;;5102051;28;20415;-64
2023/03/04 00:50:19;;;;;;;41.63;24.43;;;1.80;99.90;;;;;;5103498;28;20231;-63
2023/03/04 00:52:46;;;;;;;41.00;25.30;;;1.70;99.90;;;;;;5099367;28;20239;-62
2023/03/04 00:55:13;;;;;;;39.43;24.37;;;1.70;99.90;;;;;;5097523;28;20207;-63
2023/03/04 00:57:39;;;;;;;38.93;23.73;;;1.60;99.90;;;;;;5096111;28;20396;-64
2023/03/04 01:00:07;;;;;;;41.13;24.40;;;1.60;99.90;;;;;;5100865;28;20200;-62
2023/03/04 01:02:34;;;;;;;36.67;23.83;;;1.50;99.90;;;;;;5103764;28;20224;-62
2023/03/04 01:05:02;;;;;;;38.60;23.80;;;1.50;99.90;;;;;;5108860;28;20224;-62
2023/03/04 01:07:29;;;;;;;39.20;23.97;;;1.40;99.90;;;;;;5109887;28;20207;-62
2023/03/04 01:09:55;;;;;;;38.30;24.17;;;1.40;99.90;;;;;;5110102;28;20204;-62
2023/03/04 01:12:22;;;;;;;40.47;24.43;;;1.40;99.90;;;;;;5108548;28;20216;-62
2023/03/04 01:14:49;;;;;;;37.47;23.33;;;1.40;99.90;;;;;;5105600;28;20214;-62
2023/03/04 01:17:16;;;;;;;38.57;22.33;;;1.50;99.90;;;;;;5108285;28;20216;-61
2023/03/04 01:19:42;;;;;;;37.73;23.43;;;1.60;99.90;;;;;;5109209;28;20208;-62
2023/03/04 01:22:12;;;;;;;40.33;23.93;;;1.60;99.90;;;;;;5111073;28;20566;-62
2023/03/04 01:24:39;;;;;;;39.27;23.90;;;1.60;99.90;;;;;;5110622;28;20715;-62
2023/03/04 01:27:06;;;;;;;39.03;22.83;;;1.60;99.90;;;;;;5109471;28;20261;-62
2023/03/04 01:29:32;;;;;;;42.07;24.33;;;1.60;99.90;;;;;;5106735;28;20422;-63
2023/03/04 01:31:59;;;;;;;40.00;23.77;;;1.70;99.90;;;;;;5108376;28;20234;-63
2023/03/04 01:34:26;;;;;;;40.97;23.07;;;1.70;99.90;;;;;;5110178;28;20232;-63
2023/03/04 01:36:52;;;;;;;35.13;22.20;;;1.70;99.90;;;;;;5109495;28;20269;-63
2023/03/04 01:39:21;;;;;;;38.87;23.47;;;1.70;99.90;;;;;;5110333;28;20655;-63
2023/03/04 01:41:48;;;;;;;36.63;22.40;;;1.70;99.90;;;;;;5108606;28;20247;-63
2023/03/04 01:44:15;;;;;;;35.80;22.30;;;1.70;99.90;;;;;;5109816;28;20249;-63
2023/03/04 01:46:47;;;;;;;40.03;23.23;;;1.60;99.90;;;;;;5107354;28;20216;-62
2023/03/04 01:49:15;;;;;;;36.33;23.70;;;1.60;99.90;;;;;;5098580;28;20200;-62
2023/03/04 01:51:43;;;;;;;36.63;22.47;;;1.60;99.90;;;;;;5101149;28;20299;-62
2023/03/04 01:54:10;;;;;;;35.97;22.07;;;1.50;99.90;;;;;;5102887;28;20228;-63
2023/03/04 01:56:40;;;;;;;37.00;21.33;;;1.50;99.90;;;;;;5104426;28;20211;-63
2023/03/04 01:59:11;;;;;;;36.27;23.40;;;1.50;99.90;;;;;;5107332;28;20211;-63
2023/03/04 02:01:40;;;;;;;38.13;22.77;;;1.40;99.90;;;;;;5102983;28;20188;-62
2023/03/04 02:04:07;;;;;;;38.83;23.10;;;1.40;99.90;;;;;;5105498;28;20228;-64
2023/03/04 02:06:35;;;;;;;34.33;21.57;;;1.40;99.90;;;;;;5100815;28;20204;-63
2023/03/04 02:09:01;;;;;;;35.67;21.33;;;1.50;99.90;;;;;;5099900;28;20200;-62
2023/03/04 02:11:28;;;;;;;34.23;20.43;;;1.50;99.90;;;;;;5099052;28;20208;-62
2023/03/04 02:13:57;;;;;;;37.77;23.30;;;1.50;99.90;;;;;;5099932;28;20285;-62
2023/03/04 02:16:23;;;;;;;37.80;23.23;;;1.50;99.90;;;;;;5098879;28;20672;-62
2023/03/04 02:18:50;;;;;;;39.27;23.50;;;1.50;99.90;;;;;;5098427;28;20230;-62
2023/03/04 02:21:23;;;;;;;38.07;23.10;;;1.50;99.90;;;;;;5098983;28;20227;-63
2023/03/04 02:23:59;;;;;;;38.33;23.27;;;1.50;99.90;;;;;;5098151;28;20224;-62
2023/03/04 02:26:29;;;;;;;38.83;22.90;;;1.50;99.90;;;;;;5098751;28;20663;-62
2023/03/04 02:28:58;;;;;;;38.47;22.87;;;1.40;99.90;;;;;;5097885;28;20212;-63
2023/03/04 02:31:27;;;;;;;37.93;21.97;;;1.30;99.90;;;;;;5098015;28;20208;-61
2023/03/04 02:33:58;;;;;;;34.57;21.90;;;1.30;99.90;;;;;;5098160;28;20220;-62
2023/03/04 02:36:25;;;;;;;36.97;22.17;;;1.20;99.90;;;;;;5097140;28;20253;-62
2023/03/04 02:38:53;;;;;;;33.53;21.37;;;1.20;99.90;;;;;;5097480;28;20208;-62
2023/03/04 02:41:23;;;;;;;32.60;21.60;;;1.20;99.90;;;;;;5097708;28;20204;-62
2023/03/04 02:43:53;;;;;;;35.83;22.13;;;1.10;99.90;;;;;;5097563;28;20598;-62
2023/03/04 02:46:20;;;;;;;38.10;21.73;;;1.10;99.90;;;;;;5097716;28;20215;-62
2023/03/04 02:48:47;;;;;;;35.87;21.67;;;1.10;99.90;;;;;;5097179;28;20208;-62
2023/03/04 02:51:14;;;;;;;34.33;21.13;;;1.10;99.90;;;;;;5096978;28;20679;-62
2023/03/04 02:53:40;;;;;;;35.57;20.20;;;1.10;99.90;;;;;;5127899;22;20277;-56
2023/03/04 02:56:08;;;;;;;36.53;21.83;;;1.10;99.90;;;;;;5115095;28;20204;-55
2023/03/04 02:58:35;;;;;;;34.30;21.07;;;1.20;99.90;;;;;;5115140;28;20250;-56
2023/03/04 03:01:04;;;;;;;34.23;20.03;;;1.20;99.90;;;;;;5114705;28;20203;-56
2023/03/04 03:03:31;;;;;;;33.60;19.50;;;1.20;99.90;;;;;;5107030;28;20224;-57
2023/03/04 03:05:57;;;;;;;32.97;19.83;;;1.20;99.90;;;;;;5094744;28;20315;-56
2023/03/04 03:08:24;;;;;;;31.67;19.90;;;1.30;99.90;;;;;;5094985;28;20660;-56
2023/03/04 03:10:51;;;;;;;31.67;19.23;;;1.30;99.90;;;;;;5094503;28;20212;-55
2023/03/04 03:13:18;;;;;;;29.53;19.07;;;1.30;99.90;;;;;;5094276;28;20227;-56
2023/03/04 03:15:44;;;;;;;28.63;18.50;;;1.40;99.90;;;;;;5094238;28;20200;-57
2023/03/04 03:18:13;;;;;;;32.30;19.20;;;1.40;99.90;;;;;;5094246;28;20200;-57
2023/03/04 03:20:39;;;;;;;29.27;19.57;;;1.40;99.90;;;;;;5094222;28;20597;-57
2023/03/04 03:23:06;;;;;;;31.73;18.80;;;1.40;99.90;;;;;;5094541;28;20591;-57
2023/03/04 03:25:33;;;;;;;31.27;18.43;;;1.40;99.90;;;;;;5094479;28;20232;-57
2023/03/04 03:28:00;;;;;;;29.53;17.03;;;1.40;99.90;;;;;;5094411;28;20200;-57
2023/03/04 03:30:27;;;;;;;31.87;19.33;;;1.40;99.90;;;;;;5094286;28;20209;-57
2023/03/04 03:32:53;;;;;;;32.87;20.23;;;1.40;99.90;;;;;;5094173;28;20291;-56
2023/03/04 03:35:22;;;;;;;32.83;19.73;;;1.40;99.90;;;;;;5093983;28;20668;-57
2023/03/04 03:37:48;;;;;;;31.70;18.77;;;1.40;99.90;;;;;;5094030;28;20212;-58
2023/03/04 03:40:16;;;;;;;31.97;19.03;;;1.30;99.90;;;;;;5094622;28;20215;-54
2023/03/04 03:42:42;;;;;;;29.77;18.70;;;1.30;99.90;;;;;;5094164;28;20608;-57
2023/03/04 03:45:11;;;;;;;29.97;19.13;;;1.30;99.90;;;;;;5093597;28;20247;-57
2023/03/04 03:47:38;;;;;;;29.33;18.67;;;1.30;99.90;;;;;;5093600;28;20220;-54
2023/03/04 03:50:05;;;;;;;32.93;20.33;;;1.20;99.90;;;;;;5094099;28;20214;-55
2023/03/04 03:52:33;;;;;;;31.83;19.23;;;1.30;99.90;;;;;;5093963;28;20200;-55
2023/03/04 03:55:01;;;;;;;32.33;19.40;;;1.20;99.90;;;;;;5093826;28;20660;-56
2023/03/04 03:57:28;;;;;;;35.00;20.13;;;1.20;99.90;;;;;;5094321;28;20231;-56
2023/03/04 03:59:55;;;;;;;32.07;21.13;;;1.10;99.90;;;;;;5094179;28;20216;-56
2023/03/04 04:02:22;;;;;;;34.50;20.70;;;1.10;99.90;;;;;;5094069;28;20209;-56
2023/03/04 04:04:49;;;;;;;33.10;20.93;;;1.00;99.90;;;;;;5093743;28;20228;-55
2023/03/04 04:07:16;;;;;;;34.37;20.27;;;0.90;99.90;;;;;;5094307;28;20219;-56
2023/03/04 04:09:44;;;;;;;32.83;19.20;;;0.80;99.90;;;;;;5093429;28;20200;-56
2023/03/04 04:12:13;;;;;;;34.47;20.43;;;0.80;99.90;;;;;;5093674;28;20211;-56
2023/03/04 04:14:40;;;;;;;35.23;20.67;;;0.70;99.90;;;;;;5093534;28;20220;-56
2023/03/04 04:17:07;;;;;;;35.57;20.80;;;0.70;99.90;;;;;;5093671;28;20208;-55
2023/03/04 04:19:34;;;;;;;34.33;20.57;;;0.60;99.90;;;;;;5093000;28;20236;-56
2023/03/04 04:22:01;;;;;;;39.67;22.60;;;1.00;99.90;;;;;;5093107;28;20664;-56
2023/03/04 04:24:28;;;;;;;31.57;19.17;;;0.50;99.90;;;;;;5092933;28;20238;-56
2023/03/04 04:26:57;;;;;;;32.90;20.20;;;0.40;99.90;;;;;;5093203;28;20598;-55
2023/03/04 04:29:24;;;;;;;36.67;20.83;;;0.40;99.90;;;;;;5093408;28;20208;-56
2023/03/04 04:31:50;;;;;;;35.00;19.43;;;0.30;99.90;;;;;;5093576;28;20211;-55
2023/03/04 04:34:17;;;;;;;32.00;20.13;;;0.20;99.90;;;;;;5093716;28;20224;-55
2023/03/04 04:36:44;;;;;;;34.10;21.03;;;0.20;99.90;;;;;;5093159;28;20211;-56
2023/03/04 04:39:11;;;;;;;32.33;20.90;;;0.20;99.90;;;;;;5092945;28;20294;-56
2023/03/04 04:41:40;;;;;;;33.50;19.30;;;0.10;99.90;;;;;;5092708;28;20208;-55
2023/03/04 04:44:09;;;;;;;34.57;20.57;;;0.10;99.90;;;;;;5093011;28;20223;-56
2023/03/04 04:46:36;;;;;;;34.60;21.67;;;0.10;99.90;;;;;;5092877;28;20728;-55
2023/03/04 04:49:04;;;;;;;33.83;20.23;;;0.00;99.90;;;;;;5092757;28;20219;-56
2023/03/04 04:51:31;;;;;;;34.50;20.57;;;0.00;99.90;;;;;;5092826;28;20209;-56
2023/03/04 04:53:59;;;;;;;37.33;22.67;;;0.00;99.90;;;;;;5092416;28;20228;-55
2023/03/04 04:56:26;;;;;;;39.90;23.37;;;0.00;99.90;;;;;;5092812;28;20215;-55
2023/03/04 04:58:54;;;;;;;44.40;26.17;;;0.00;99.90;;;;;;5092589;28;20675;-56
2023/03/04 05:01:22;;;;;;;45.77;26.17;;;0.00;99.90;;;;;;5092567;28;20204;-56
2023/03/04 05:03:52;;;;;;;37.37;23.23;;;0.00;99.90;;;;;;5092639;28;20228;-55
2023/03/04 05:06:19;;;;;;;35.83;21.40;;;-0.10;99.90;;;;;;5092498;28;20235;-56
2023/03/04 05:08:46;;;;;;;35.23;20.70;;;-0.20;99.90;;;;;;5092686;28;20204;-56
2023/03/04 05:11:13;;;;;;;33.87;21.10;;;-0.20;99.90;;;;;;5093159;28;20200;-56
2023/03/04 05:13:40;;;;;;;34.90;20.93;;;-0.20;99.90;;;;;;5092440;28;20718;-56
2023/03/04 05:16:08;;;;;;;33.03;19.60;;;-0.20;99.90;;;;;;5092286;28;20577;-56
2023/03/04 05:18:36;;;;;;;31.83;19.57;;;-0.20;99.90;;;;;;5092274;28;20211;-57
2023/03/04 05:21:03;;;;;;;33.57;20.43;;;-0.20;99.90;;;;;;5092375;28;20201;-56
2023/03/04 05:23:32;;;;;;;34.40;18.77;;;-0.20;99.90;;;;;;5092717;28;20610;-56
2023/03/04 05:25:59;;;;;;;32.43;19.30;;;-0.20;99.90;;;;;;5095922;28;20235;-55
2023/03/04 05:28:25;;;;;;;32.23;20.10;;;-0.20;99.90;;;;;;5096434;28;20224;-56
2023/03/04 05:30:53;;;;;;;36.77;21.90;;;-0.20;99.90;;;;;;5096725;28;20200;-55
2023/03/04 05:33:20;;;;;;;34.10;20.50;;;-0.20;99.90;;;;;;5096355;28;20231;-56
2023/03/04 05:35:49;;;;;;;32.60;19.50;;;-0.10;99.90;;;;;;5096100;28;20208;-56
2023/03/04 05:38:17;;;;;;;30.70;19.37;;;-0.20;99.90;;;;;;5096443;28;20676;-56
2023/03/04 05:40:44;;;;;;;34.50;20.03;;;-0.30;99.90;;;;;;5097132;28;20219;-56
2023/03/04 05:43:12;;;;;;;36.03;20.77;;;-0.30;99.90;;;;;;5096564;28;20231;-56
2023/03/04 05:45:39;;;;;;;32.60;20.97;;;-0.30;99.90;;;;;;5096120;28;20227;-55
2023/03/04 05:48:07;;;;;;;30.43;19.60;;;-0.30;99.90;;;;;;5096197;28;20200;-56
2023/03/04 05:50:34;;;;;;;35.83;21.17;;;-0.30;99.90;;;;;;5096598;28;20212;-56
2023/03/04 05:53:03;;;;;;;34.47;21.33;;;-0.30;99.90;;;;;;5095850;28;20228;-56
2023/03/04 05:55:29;;;;;;;32.60;20.37;;;-0.20;99.90;;;;;;5096638;28;20204;-56
2023/03/04 05:57:57;;;;;;;29.80;18.57;;;-0.20;99.90;;;;;;5096332;28;20212;-64
2023/03/04 06:00:24;;;;;;;28.63;17.17;;;-0.20;99.90;;;;;;5096758;28;20623;-56
2023/03/04 06:02:51;;;;;;;36.07;21.53;;;-0.10;99.90;;;;;;5096266;28;20498;-57
2023/03/04 06:05:18;;;;;;;30.13;17.47;;;0.00;99.90;;;;;;5096555;28;20228;-56
2023/03/04 06:07:45;;;;;;;33.00;18.47;;;0.10;99.90;;;;;;5096471;28;20216;-56
2023/03/04 06:10:15;;;;;;;31.70;20.00;;;0.20;99.90;;;;;;5096519;28;20646;-57
2023/03/04 06:12:42;;;;;;;38.47;19.17;;;0.40;99.90;;;;;;5096458;28;20239;-55
2023/03/04 06:15:09;;;;;;;35.50;19.57;;;0.50;99.90;;;;;;5096328;28;20687;-57
2023/03/04 06:17:37;;;;;;;29.90;18.60;;;0.60;99.90;;;;;;5097282;28;20266;-56
2023/03/04 06:20:05;;;;;;;33.83;19.63;;;0.80;99.90;;;;;;5096487;28;20674;-56
2023/03/04 06:22:32;;;;;;;27.73;18.10;;;1.00;99.90;;;;;;5097001;28;20579;-56
2023/03/04 06:24:58;;;;;;;33.93;18.73;;;1.20;99.90;;;;;;5096695;28;20224;-56
2023/03/04 06:27:27;;;;;;;29.50;17.77;;;1.40;99.90;;;;;;5096526;28;20717;-56
2023/03/04 06:29:54;;;;;;;26.40;17.87;;;1.60;99.90;;;;;;5096344;28;20215;-56
2023/03/04 06:32:20;;;;;;;54.17;29.53;;;1.70;99.90;;;;;;5097511;28;20212;-56
2023/03/04 06:34:47;;;;;;;28.23;17.73;;;1.90;99.90;;;;;;5098019;28;20707;-56
2023/03/04 06:37:14;;;;;;;32.27;18.97;;;2.10;99.90;;;;;;5096004;28;20292;-55
2023/03/04 06:39:41;;;;;;;33.73;19.00;;;2.20;99.90;;;;;;5096118;28;20219;-56
2023/03/04 06:42:08;;;;;;;28.27;17.47;;;2.40;99.90;;;;;;5096572;28;20227;-56
2023/03/04 06:44:36;;;;;;;26.57;15.97;;;2.60;99.90;;;;;;5096943;28;20226;-56
2023/03/04 06:47:03;;;;;;;31.23;17.53;;;2.70;99.90;;;;;;5096305;28;20231;-56
2023/03/04 06:49:30;;;;;;;27.83;16.13;;;2.80;99.90;;;;;;5096087;28;20671;-56
2023/03/04 06:51:57;;;;;;;28.50;17.10;;;3.00;99.90;;;;;;5096270;28;20204;-56
2023/03/04 06:54:24;;;;;;;27.80;16.13;;;3.00;99.90;;;;;;5096703;28;20234;-56
2023/03/04 06:56:51;;;;;;;26.27;15.97;;;3.10;99.90;;;;;;5096698;28;20204;-55
2023/03/04 06:59:17;;;;;;;29.47;17.17;;;3.20;99.90;;;;;;5096076;28;20764;-55
2023/03/04 07:01:46;;;;;;;27.67;16.73;;;3.30;99.90;;;;;;5096778;28;20240;-55
2023/03/04 07:04:14;;;;;;;27.77;17.73;;;3.40;99.90;;;;;;5096886;28;20247;-55
2023/03/04 07:06:41;;;;;;;25.77;16.50;;;3.60;99.90;;;;;;5096627;28;20232;-55
2023/03/04 07:09:07;;;;;;;26.83;16.63;;;3.70;99.90;;;;;;5096137;28;20200;-55
2023/03/04 07:11:34;;;;;;;26.13;16.40;;;3.80;99.90;;;;;;5096726;28;20349;-56
2023/03/04 07:14:01;;;;;;;22.60;15.60;;;3.90;99.90;;;;;;5096749;28;20224;-55
2023/03/04 07:16:28;;;;;;;28.03;16.33;;;3.90;99.90;;;;;;5096766;28;20295;-56
2023/03/04 07:18:57;;;;;;;25.47;16.03;;;3.60;99.90;;;;;;5095612;28;20668;-56
2023/03/04 07:21:23;;;;;;;26.43;15.17;;;3.50;99.90;;;;;;5095104;28;20204;-55
2023/03/04 07:23:50;;;;;;;25.37;16.13;;;3.30;99.90;;;;;;5094940;28;20741;-56
2023/03/04 07:26:18;;;;;;;23.67;15.30;;;3.20;99.90;;;;;;5095013;28;20224;-56
2023/03/04 07:28:44;;;;;;;30.17;16.43;;;3.20;99.90;;;;;;5094684;28;20207;-56
2023/03/04 07:31:18;;;;;;;25.87;16.80;;;3.20;99.90;;;;;;5095270;28;20247;-56
2023/03/04 07:33:45;;;;;;;24.23;16.57;;;3.20;99.90;;;;;;5094716;28;20608;-55
2023/03/04 07:36:14;;;;;;;28.23;16.57;;;3.40;99.90;;;;;;5094919;28;20200;-56
2023/03/04 07:38:44;;;;;;;27.10;16.47;;;3.50;99.90;;;;;;5094436;28;20612;-56
2023/03/04 07:41:11;;;;;;;26.97;16.43;;;3.60;99.90;;;;;;5094591;28;20679;-56
2023/03/04 07:43:37;;;;;;;36.50;20.87;;;3.60;99.90;;;;;;5094145;28;20224;-56
2023/03/04 07:46:05;;;;;;;29.70;16.70;;;3.50;99.90;;;;;;5094531;28;20220;-56
2023/03/04 07:48:32;;;;;;;23.67;15.17;;;3.60;99.90;;;;;;5093248;28;20208;-56
2023/03/04 07:51:09;;;;;;;26.30;15.10;;;3.80;99.90;;;;;;5094543;28;20266;-54
2023/03/04 07:53:40;;;;;;;25.60;15.47;;;3.90;99.90;;;;;;5094197;28;20248;-57
2023/03/04 07:56:08;;;;;;;124.43;83.90;;;3.90;99.90;;;;;;5094296;28;20200;-55
2023/03/04 07:58:35;;;;;;;28.73;17.93;;;3.80;99.90;;;;;;5093640;28;20635;-54
2023/03/04 08:01:08;;;;;;;26.00;15.90;;;3.80;99.90;;;;;;5094116;28;20215;-54
2023/03/04 08:03:34;;;;;;;29.13;18.90;;;3.90;99.90;;;;;;5093671;28;20231;-56
2023/03/04 08:06:05;;;;;;;23.80;15.63;;;4.20;99.90;;;;;;5093795;28;20235;-56
2023/03/04 08:08:31;;;;;;;22.47;14.80;;;4.60;99.90;;;;;;5093792;28;20212;-56
2023/03/04 08:10:59;;;;;;;21.97;14.83;;;4.80;99.90;;;;;;5093686;28;20215;-56
2023/03/04 08:13:26;;;;;;;24.90;14.97;;;5.00;99.90;;;;;;5093841;28;20727;-57
2023/03/04 08:15:55;;;;;;;23.80;14.73;;;5.20;99.90;;;;;;5093897;28;20272;-56
2023/03/04 08:18:22;;;;;;;23.70;15.23;;;5.30;99.90;;;;;;5093320;28;20216;-57
2023/03/04 08:20:49;;;;;;;23.87;15.80;;;5.50;99.90;;;;;;5093871;28;20200;-57
2023/03/04 08:23:16;;;;;;;25.57;16.60;;;5.50;99.90;;;;;;5093672;28;20228;-57
2023/03/04 08:25:43;;;;;;;22.20;14.63;;;5.70;99.90;;;;;;5093563;28;20220;-56
2023/03/04 08:28:12;;;;;;;21.17;14.43;;;5.80;99.90;;;;;;5093604;28;20595;-59
2023/03/04 08:30:40;;;;;;;24.93;16.00;;;5.90;99.90;;;;;;5093583;28;20208;-57
2023/03/04 08:33:07;;;;;;;26.27;17.07;;;6.10;99.90;;;;;;5093652;28;20311;-57
2023/03/04 08:35:36;;;;;;;26.13;16.70;;;6.20;99.90;;;;;;5093520;28;20204;-57
2023/03/04 08:38:03;;;;;;;22.43;15.43;;;6.20;99.90;;;;;;5093625;28;20261;-56
2023/03/04 08:40:30;;;;;;;23.33;15.33;;;6.30;99.90;;;;;;5093064;28;20208;-55
2023/03/04 08:42:56;;;;;;;22.70;15.07;;;6.50;99.90;;;;;;5093575;28;20228;-56
2023/03/04 08:45:25;;;;;;;23.63;16.57;;;6.60;99.90;;;;;;5093283;28;20628;-56
2023/03/04 08:47:51;;;;;;;24.70;15.00;;;6.70;99.90;;;;;;5092749;28;20205;-56
2023/03/04 08:50:18;;;;;;;22.50;14.67;;;6.80;99.90;;;;;;5092512;28;20261;-57
2023/03/04 08:52:45;;;;;;;28.80;18.70;;;6.80;99.90;;;;;;5092539;28;20209;-56
2023/03/04 08:55:12;;;;;;;21.83;13.83;;;6.80;99.90;;;;;;5106530;22;20273;-60
2023/03/04 08:57:39;;;;;;;20.53;13.47;;;6.80;99.90;;;;;;5091673;28;20200;-60
2023/03/04 09:00:07;;;;;;;21.13;14.40;;;6.50;99.90;;;;;;5091309;28;20663;-61
2023/03/04 09:02:35;;;;;;;22.63;15.00;;;6.00;99.90;;;;;;5091945;28;20208;-60
2023/03/04 09:05:02;;;;;;;19.43;13.80;;;5.60;99.90;;;;;;5091570;28;20228;-61
2023/03/04 09:07:28;;;;;;;23.30;14.50;;;5.70;99.90;;;;;;5091702;28;20219;-60
2023/03/04 09:09:55;;;;;;;21.70;14.17;;;5.90;99.90;;;;;;5091739;28;20211;-60
2023/03/04 09:12:21;;;;;;;21.90;15.27;;;6.00;99.90;;;;;;5091668;28;20272;-60
2023/03/04 09:14:48;;;;;;;24.43;14.97;;;6.10;99.90;;;;;;5092075;28;20220;-61
2023/03/04 09:17:15;;;;;;;22.23;14.93;;;6.10;99.90;;;;;;5091863;28;20200;-60
2023/03/04 09:19:43;;;;;;;24.17;14.23;;;6.20;99.90;;;;;;5091889;28;20230;-60
2023/03/04 09:22:10;;;;;;;24.87;15.23;;;6.30;99.90;;;;;;5091867;28;20210;-60
2023/03/04 09:24:36;;;;;;;22.83;14.90;;;6.50;99.90;;;;;;5092039;28;20220;-62
2023/03/04 09:27:03;;;;;;;22.03;14.40;;;6.80;99.90;;;;;;5091929;28;20266;-61
2023/03/04 09:29:30;;;;;;;20.87;13.37;;;7.00;99.90;;;;;;5091813;28;20219;-60
2023/03/04 09:31:57;;;;;;;19.97;13.67;;;7.10;99.90;;;;;;5088243;28;20205;-62
2023/03/04 09:34:23;;;;;;;22.13;14.33;;;7.30;99.90;;;;;;5091369;28;20232;-62
2023/03/04 09:36:52;;;;;;;22.77;14.20;;;7.40;99.90;;;;;;5091322;28;20730;-64
2023/03/04 09:39:18;;;;;;;22.40;14.60;;;7.50;99.90;;;;;;5091973;28;20254;-60
2023/03/04 09:41:48;;;;;;;23.30;14.73;;;7.60;99.90;;;;;;5092147;28;20211;-67
2023/03/04 09:44:21;;;;;;;20.83;14.00;;;7.70;99.90;;;;;;5095568;28;20227;-63
2023/03/04 09:46:49;;;;;;;22.10;13.43;;;7.80;99.90;;;;;;5095765;28;20240;-61
2023/03/04 09:49:18;;;;;;;21.37;14.67;;;7.80;99.90;;;;;;5096113;28;20208;-60
2023/03/04 09:51:51;;;;;;;21.97;13.27;;;7.90;99.90;;;;;;5096589;28;20201;-60
2023/03/04 09:54:51;;;;;;;20.53;13.23;;;8.00;99.90;;;;;;5095990;28;20240;-60
2023/03/04 09:57:27;;;;;;;19.50;13.83;;;8.10;99.90;;;;;;5095349;28;20302;-62
2023/03/04 10:00:07;;;;;;;25.47;14.93;;;8.10;99.90;;;;;;5092502;28;20238;-60
2023/03/04 10:02:45;;;;;;;20.33;13.50;;;8.00;99.90;;;;;;5092383;28;20635;-60
2023/03/04 10:05:16;;;;;;;56.00;40.13;;;8.00;99.90;;;;;;5092183;28;20243;-59
2023/03/04 10:07:48;;;;;;;22.73;16.00;;;7.90;99.90;;;;;;5092493;28;20300;-60
2023/03/04 10:10:22;;;;;;;19.50;14.17;;;8.00;99.90;;;;;;5092275;28;20243;-60
2023/03/04 10:12:51;;;;;;;18.70;13.20;;;8.10;99.90;;;;;;5096301;28;20228;-59
2023/03/04 10:15:27;;;;;;;25.13;14.80;;;8.10;99.90;;;;;;5098299;28;20281;-60
2023/03/04 10:17:59;;;;;;;21.07;14.13;;;8.10;99.90;;;;;;5100685;28;20207;-60
2023/03/04 10:20:30;;;;;;;20.53;14.50;;;8.30;99.90;;;;;;5099194;28;20204;-61
2023/03/04 10:22:59;;;;;;;21.83;14.03;;;8.50;99.90;;;;;;5099558;28;20219;-65
2023/03/04 10:25:31;;;;;;;20.43;13.53;;;8.80;99.90;;;;;;5100463;28;20330;-61
2023/03/04 10:28:01;;;;;;;21.77;14.23;;;9.10;99.90;;;;;;5100243;28;20711;-60
2023/03/04 10:30:39;;;;;;;21.30;13.70;;;9.20;99.90;;;;;;5102067;28;20208;-60
2023/03/04 10:33:12;;;;;;;18.93;13.33;;;9.30;99.90;;;;;;5100526;28;20208;-60
2023/03/04 10:35:39;;;;;;;18.27;12.57;;;9.50;99.90;;;;;;5099897;28;20612;-62
2023/03/04 10:38:08;;;;;;;20.33;13.03;;;9.30;99.90;;;;;;5097132;28;20196;-61
2023/03/04 10:40:40;;;;;;;17.77;13.10;;;9.20;99.90;;;;;;5096950;28;20300;-60
2023/03/04 10:43:15;;;;;;;20.40;14.80;;;9.20;99.90;;;;;;5096776;28;20204;-60
2023/03/04 10:45:42;;;;;;;18.00;13.37;;;9.20;99.90;;;;;;5098468;28;20206;-63
2023/03/04 10:48:19;;;;;;;19.40;13.43;;;9.30;99.90;;;;;;5095405;28;20220;-61
2023/03/04 10:50:45;;;;;;;18.87;13.30;;;9.50;99.90;;;;;;5095795;28;20670;-61
2023/03/04 10:53:28;;;;;;;20.80;14.43;;;9.60;99.90;;;;;;5095967;28;20675;-60
2023/03/04 10:55:56;;;;;;;21.60;14.20;;;9.30;99.90;;;;;;5095032;28;20261;-60
2023/03/04 10:58:22;;;;;;;20.13;14.23;;;9.30;99.90;;;;;;5095001;28;20201;-61
2023/03/04 11:01:00;;;;;;;21.57;14.13;;;9.10;99.90;;;;;;5095361;28;20231;-60
2023/03/04 11:03:31;;;;;;;23.00;14.93;;;8.90;99.90;;;;;;5095772;28;20228;-60
2023/03/04 11:06:07;;;;;;;19.40;14.53;;;9.00;99.90;;;;;;5099056;28;20204;-61
2023/03/04 11:08:33;;;;;;;21.67;14.73;;;9.10;99.90;;;;;;5101305;28;20208;-60
2023/03/04 11:11:02;;;;;;;20.77;14.80;;;9.00;99.90;;;;;;5102338;28;20208;-60
2023/03/04 11:13:31;;;;;;;27.67;16.87;;;8.90;99.90;;;;;;5102375;28;20228;-60
2023/03/04 11:16:00;;;;;;;22.77;15.67;;;8.60;99.90;;;;;;5095877;28;20216;-60
2023/03/04 11:18:33;;;;;;;19.27;14.30;;;8.10;99.90;;;;;;5096574;28;20265;-60
2023/03/04 11:21:00;;;;;;;19.10;14.43;;;8.10;99.90;;;;;;5102462;28;20698;-60
2023/03/04 11:23:43;;;;;;;21.63;15.00;;;8.10;99.90;;;;;;5103447;28;20224;-61
2023/03/04 11:26:16;;;;;;;21.73;15.40;;;8.20;99.90;;;;;;5105352;28;20208;-59
2023/03/04 11:28:48;;;;;;;22.17;15.13;;;8.30;99.90;;;;;;5101914;28;20208;-61
2023/03/04 11:31:18;;;;;;;24.53;15.77;;;8.10;99.90;;;;;;5095187;28;20205;-60
2023/03/04 11:33:51;;;;;;;21.00;14.90;;;8.00;99.90;;;;;;5095582;28;20232;-60
2023/03/04 11:36:32;;;;;;;24.13;15.63;;;8.10;99.90;;;;;;5094748;28;20208;-61
2023/03/04 11:38:59;;;;;;;20.57;15.07;;;7.90;99.90;;;;;;5093998;28;20214;-59
2023/03/04 11:41:31;;;;;;;22.60;15.90;;;7.80;99.90;;;;;;5093830;28;20220;-59
2023/03/04 11:43:59;;;;;;;24.17;17.03;;;7.80;99.90;;;;;;5093705;28;20252;-59
2023/03/04 11:46:57;;;;;;;23.47;15.57;;;8.00;99.90;;;;;;5094521;28;20200;-61
2023/03/04 11:50:11;;;;;;;24.03;15.43;;;7.90;99.90;;;;;;5095798;28;20295;-60
2023/03/04 11:53:00;;;;;;;23.47;15.60;;;7.80;99.90;;;;;;5069430;28;20200;-61
2023/03/04 11:55:37;;;;;;;21.73;14.93;;;7.40;99.90;;;;;;5094004;28;20299;-59
2023/03/04 11:58:23;;;;;;;23.70;16.20;;;6.90;99.90;;;;;;5094187;28;20218;-59
2023/03/04 12:00:55;;;;;;;22.00;15.27;;;6.70;99.90;;;;;;5094175;28;20261;-60
2023/03/04 12:03:40;;;;;;;21.87;14.90;;;6.40;99.90;;;;;;5093830;28;20227;-61
2023/03/04 12:06:13;;;;;;;21.60;15.50;;;6.40;99.90;;;;;;5094257;28;20204;-62
2023/03/04 12:08:50;;;;;;;23.07;15.87;;;6.40;99.90;;;;;;5093998;28;20263;-60
2023/03/04 12:11:29;;;;;;;23.33;16.50;;;6.30;99.90;;;;;;5093637;28;20219;-59
2023/03/04 12:14:09;;;;;;;27.93;17.60;;;6.30;99.90;;;;;;5093835;28;20228;-60
2023/03/04 12:16:52;;;;;;;24.70;16.20;;;6.40;99.90;;;;;;5094385;28;20208;-59
2023/03/04 12:19:29;;;;;;;22.03;15.67;;;6.60;99.90;;;;;;5093819;28;20215;-60
2023/03/04 12:22:12;;;;;;;25.60;16.77;;;6.80;99.90;;;;;;5093304;28;20200;-60
2023/03/04 12:24:58;;;;;;;27.43;17.40;;;6.70;99.90;;;;;;5093453;28;20614;-59
2023/03/04 12:27:31;;;;;;;26.80;17.23;;;6.40;99.90;;;;;;5093307;28;20224;-62
2023/03/04 12:30:05;;;;;;;24.23;16.93;;;6.30;99.90;;;;;;5092735;28;20208;-60
2023/03/04 12:32:39;;;;;;;23.87;17.43;;;6.50;99.90;;;;;;5093368;28;20664;-61
2023/03/04 12:35:37;;;;;;;27.03;18.33;;;6.80;99.90;;;;;;5092852;28;20246;-61
2023/03/04 12:38:18;;;;;;;26.47;17.67;;;7.00;99.90;;;;;;5093845;28;20204;-60
2023/03/04 12:40:53;;;;;;;23.90;16.47;;;6.90;99.90;;;;;;5093097;28;20207;-60
2023/03/04 12:43:30;;;;;;;27.13;17.50;;;6.70;99.90;;;;;;5093376;28;20207;-61
2023/03/04 12:46:07;;;;;;;30.50;18.53;;;6.60;99.90;;;;;;5093251;28;20215;-59